Terminal Aerodrome Forecast
Issued by NWS

Home | Current Version | Previous Version | Graphics & Text | Print | Product List | Glossary On
Versions: 1 2 3 4 5 6 7 8 9 10 11 12 13 14
000
FTUS43 KGRB 171734
TAFAUW
TAF
KAUW 171734Z 1718/1818 24012G22KT P6SM BKN200 WS020/28050KT
     FM172300 24012G19KT P6SM SKC
     FM180700 26008KT P6SM SCT250
     FM181500 25010G17KT P6SM FEW020 BKN150=

USA.gov is the U.S. government's official web portal to all federal, state and local government web resources and services.